Time;durP1;ratioP1;P1;durP2;ratioP2;P2;SDS_P1;SDS_P2;PMS_P1;PMS_P2;Temp;Humidity;BMP_temperature;BMP_pressure;BME280_temperature;BME280_humidity;BME280_pressure;Samples;Min_cycle;Max_cycle;Signal;HPM_P1;HPM_P2
2022/10/26 00:01:05;;;;;;;2.47;1.97;;;;;;;;;;5115119;28;20196;-86
2022/10/26 00:03:34;;;;;;;0.40;0.40;;;;;;;;;;5114493;28;20311;-86
2022/10/26 00:06:04;;;;;;;22.80;2.23;;;;;;;;;;5102152;28;20220;-86
2022/10/26 00:08:33;;;;;;;0.40;0.40;;;;;;;;;;5114565;28;20196;-86
2022/10/26 00:11:01;;;;;;;0.70;0.70;;;;;;;;;;5114703;28;20204;-86
2022/10/26 00:13:31;;;;;;;7.70;3.67;;;;;;;;;;5112649;28;20200;-86
2022/10/26 00:15:59;;;;;;;0.63;0.63;;;;;;;;;;5104773;28;20243;-86
2022/10/26 00:18:28;;;;;;;0.60;0.60;;;;;;;;;;5114760;28;20199;-86
2022/10/26 00:20:56;;;;;;;0.60;0.60;;;;;;;;;;5114416;28;20197;-86
2022/10/26 00:23:25;;;;;;;1.00;1.00;;;;;;;;;;5101727;28;20213;-86
2022/10/26 00:25:56;;;;;;;0.63;0.63;;;;;;;;;;5114684;28;20184;-86
2022/10/26 00:28:25;;;;;;;9.63;2.33;;;;;;;;;;5114341;28;20193;-86
2022/10/26 00:30:57;;;;;;;0.70;0.70;;;;;;;;;;5114639;28;20204;-86
2022/10/26 00:33:26;;;;;;;0.50;0.50;;;;;;;;;;5101576;28;20275;-86
2022/10/26 00:35:55;;;;;;;0.60;0.60;;;;;;;;;;5114675;28;20266;-86
2022/10/26 00:38:23;;;;;;;0.97;0.97;;;;;;;;;;5113877;28;20223;-84
2022/10/26 00:40:51;;;;;;;0.80;0.80;;;;;;;;;;5114159;28;20220;-84
2022/10/26 00:43:35;;;;;;;0.60;0.60;;;;;;;;;;5113515;28;20200;-84
2022/10/26 00:46:06;;;;;;;0.97;0.97;;;;;;;;;;5113534;28;20200;-84
2022/10/26 00:48:37;;;;;;;1.40;1.30;;;;;;;;;;5113864;28;20200;-85
2022/10/26 00:51:07;;;;;;;0.90;0.90;;;;;;;;;;5113729;28;20203;-85
2022/10/26 00:53:36;;;;;;;1.07;1.07;;;;;;;;;;5114846;28;20216;-85
2022/10/26 00:56:05;;;;;;;0.50;0.50;;;;;;;;;;5108248;28;20216;-85
2022/10/26 00:58:33;;;;;;;0.70;0.70;;;;;;;;;;5106725;28;20203;-85
2022/10/26 01:01:02;;;;;;;0.97;0.97;;;;;;;;;;5113808;28;20204;-85
2022/10/26 01:03:32;;;;;;;1.63;1.53;;;;;;;;;;5113425;28;20216;-84
2022/10/26 01:06:01;;;;;;;0.70;0.70;;;;;;;;;;5101761;28;20240;-85
2022/10/26 01:08:30;;;;;;;0.80;0.80;;;;;;;;;;5114521;28;20237;-85
2022/10/26 01:10:58;;;;;;;1.97;1.80;;;;;;;;;;5113880;28;20261;-85
2022/10/26 01:13:28;;;;;;;0.60;0.60;;;;;;;;;;5113300;28;20196;-85
2022/10/26 01:16:03;;;;;;;0.70;0.70;;;;;;;;;;5113482;28;20257;-85
2022/10/26 01:18:39;;;;;;;0.47;0.47;;;;;;;;;;5113353;28;20644;-85
2022/10/26 01:21:26;;;;;;;1.23;1.23;;;;;;;;;;5113581;28;20200;-85
2022/10/26 01:24:13;;;;;;;2.50;2.40;;;;;;;;;;5113094;28;20192;-85
2022/10/26 01:26:51;;;;;;;0.50;0.50;;;;;;;;;;5114127;28;20265;-85
2022/10/26 01:29:37;;;;;;;1.00;1.00;;;;;;;;;;5114317;28;20196;-85
2022/10/26 01:32:11;;;;;;;1.13;1.13;;;;;;;;;;5078497;27;20225;-85
2022/10/26 01:34:43;;;;;;;1.00;1.00;;;;;;;;;;5112891;28;20200;-85
2022/10/26 01:37:13;;;;;;;0.97;0.97;;;;;;;;;;5113230;28;20243;-85
2022/10/26 01:39:46;;;;;;;1.33;1.33;;;;;;;;;;5113054;28;20196;-85
2022/10/26 01:42:16;;;;;;;0.70;0.70;;;;;;;;;;5112797;28;20204;-85
2022/10/26 01:44:47;;;;;;;1.07;1.07;;;;;;;;;;5113851;28;20227;-85
2022/10/26 01:47:17;;;;;;;0.50;0.50;;;;;;;;;;5112879;28;20188;-85
2022/10/26 01:49:48;;;;;;;0.70;0.70;;;;;;;;;;5112576;28;20203;-85
2022/10/26 01:52:18;;;;;;;1.03;0.97;;;;;;;;;;5112300;28;20253;-85
2022/10/26 01:54:46;;;;;;;0.97;0.97;;;;;;;;;;5117161;27;20201;-85
2022/10/26 01:57:16;;;;;;;0.50;0.50;;;;;;;;;;5112828;28;20231;-85
2022/10/26 01:59:53;;;;;;;0.60;0.60;;;;;;;;;;5113097;28;20265;-85
2022/10/26 02:02:33;;;;;;;1.17;1.17;;;;;;;;;;5112486;28;20200;-85
2022/10/26 02:05:16;;;;;;;0.50;0.50;;;;;;;;;;5112289;28;20232;-85
2022/10/26 02:07:50;;;;;;;1.27;1.27;;;;;;;;;;5100920;28;20192;-85
2022/10/26 02:10:23;;;;;;;2.80;2.53;;;;;;;;;;5112436;28;20211;-85
2022/10/26 02:12:54;;;;;;;1.03;1.03;;;;;;;;;;5112535;28;20417;-85
2022/10/26 02:15:23;;;;;;;1.70;1.60;;;;;;;;;;5098867;28;20195;-85
2022/10/26 02:17:56;;;;;;;5.50;4.83;;;;;;;;;;5107264;28;20315;-86
2022/10/26 02:20:27;;;;;;;0.80;0.80;;;;;;;;;;5103930;28;20203;-85
2022/10/26 02:22:56;;;;;;;2.70;2.50;;;;;;;;;;5107234;28;20193;-85
2022/10/26 02:25:27;;;;;;;1.00;1.00;;;;;;;;;;5105988;28;20202;-85
2022/10/26 02:27:58;;;;;;;0.70;0.70;;;;;;;;;;5102482;28;20193;-85
2022/10/26 02:30:27;;;;;;;0.60;0.60;;;;;;;;;;5112350;28;20200;-85
2022/10/26 02:32:58;;;;;;;2.53;2.43;;;;;;;;;;5112520;28;20256;-85
2022/10/26 02:35:29;;;;;;;0.63;0.63;;;;;;;;;;5099508;28;20286;-85
2022/10/26 02:38:00;;;;;;;4.73;2.33;;;;;;;;;;5112615;28;20216;-85
2022/10/26 02:40:29;;;;;;;3.30;2.47;;;;;;;;;;5112126;28;20235;-85
2022/10/26 02:43:00;;;;;;;0.70;0.70;;;;;;;;;;5112468;28;20226;-85
2022/10/26 02:45:31;;;;;;;2.53;1.77;;;;;;;;;;5106757;28;20216;-85
2022/10/26 02:48:01;;;;;;;1.40;1.40;;;;;;;;;;5092518;28;20201;-85
2022/10/26 02:50:33;;;;;;;1.20;1.00;;;;;;;;;;5100055;28;20218;-85
2022/10/26 02:53:06;;;;;;;2.80;2.60;;;;;;;;;;5105534;28;20201;-85
2022/10/26 02:55:39;;;;;;;1.83;1.80;;;;;;;;;;5107735;28;20208;-85
2022/10/26 02:58:12;;;;;;;1.43;1.33;;;;;;;;;;5102248;28;20217;-85
2022/10/26 03:00:41;;;;;;;3.00;2.77;;;;;;;;;;5110011;28;20196;-85
2022/10/26 03:03:11;;;;;;;2.20;2.00;;;;;;;;;;5101585;28;20311;-85
2022/10/26 03:05:42;;;;;;;2.03;1.93;;;;;;;;;;5112018;28;20225;-85
2022/10/26 03:08:11;;;;;;;2.07;1.83;;;;;;;;;;5114464;28;20287;-85
2022/10/26 03:10:41;;;;;;;0.83;0.83;;;;;;;;;;5102268;28;20204;-85
2022/10/26 03:13:09;;;;;;;0.93;0.93;;;;;;;;;;5116019;28;20197;-85
2022/10/26 03:15:38;;;;;;;0.50;0.50;;;;;;;;;;5116813;28;20207;-86
2022/10/26 03:18:07;;;;;;;2.73;1.63;;;;;;;;;;5115637;28;20224;-85
2022/10/26 03:20:37;;;;;;;1.50;1.23;;;;;;;;;;5115718;28;20245;-85
2022/10/26 03:23:05;;;;;;;1.33;1.33;;;;;;;;;;5113564;28;20209;-85
2022/10/26 03:25:34;;;;;;;4.73;2.30;;;;;;;;;;5105044;28;20196;-85
2022/10/26 03:28:03;;;;;;;0.80;0.80;;;;;;;;;;5103101;28;20200;-85
2022/10/26 03:30:32;;;;;;;7.10;4.17;;;;;;;;;;5115633;28;20204;-85
2022/10/26 03:33:00;;;;;;;6.00;5.40;;;;;;;;;;5115287;28;20204;-85
2022/10/26 03:35:29;;;;;;;13.63;5.47;;;;;;;;;;5115449;28;20200;-85
2022/10/26 03:37:58;;;;;;;1.50;1.47;;;;;;;;;;5115243;28;20216;-85
2022/10/26 03:40:27;;;;;;;1.43;1.43;;;;;;;;;;5114948;28;20299;-85
2022/10/26 03:42:55;;;;;;;2.47;1.63;;;;;;;;;;5115146;28;20346;-85
2022/10/26 03:45:23;;;;;;;0.97;0.97;;;;;;;;;;5115374;28;20246;-85
2022/10/26 03:47:52;;;;;;;1.67;1.57;;;;;;;;;;5115003;28;20188;-85
2022/10/26 03:50:22;;;;;;;2.30;1.67;;;;;;;;;;5116171;28;20220;-85
2022/10/26 03:52:50;;;;;;;1.87;1.00;;;;;;;;;;5115208;28;20201;-85
2022/10/26 03:55:20;;;;;;;2.37;2.17;;;;;;;;;;5115191;28;20300;-85
2022/10/26 03:57:49;;;;;;;6.57;3.53;;;;;;;;;;5101910;28;20213;-85
2022/10/26 04:00:18;;;;;;;1.03;0.90;;;;;;;;;;5102856;28;20201;-85
2022/10/26 04:02:48;;;;;;;1.03;1.00;;;;;;;;;;5115247;28;20192;-85
2022/10/26 04:05:17;;;;;;;1.10;1.10;;;;;;;;;;5114544;28;20319;-85
2022/10/26 04:07:45;;;;;;;2.50;1.30;;;;;;;;;;5114839;28;20234;-85
2022/10/26 04:10:14;;;;;;;1.17;1.17;;;;;;;;;;5114715;28;20204;-85
2022/10/26 04:12:44;;;;;;;1.63;1.53;;;;;;;;;;5115880;28;20193;-85
2022/10/26 04:15:12;;;;;;;1.77;1.47;;;;;;;;;;5114387;28;20239;-85
2022/10/26 04:17:41;;;;;;;1.67;1.40;;;;;;;;;;5115513;28;20216;-85
2022/10/26 04:20:09;;;;;;;4.17;2.03;;;;;;;;;;5114186;28;20219;-85
2022/10/26 04:22:38;;;;;;;2.67;1.63;;;;;;;;;;5114423;28;20205;-85
2022/10/26 04:25:07;;;;;;;2.33;1.87;;;;;;;;;;5115287;28;20208;-85
2022/10/26 04:27:35;;;;;;;0.90;0.90;;;;;;;;;;5103851;28;20208;-85
2022/10/26 04:30:08;;;;;;;1.10;1.10;;;;;;;;;;5113834;28;20234;-85
2022/10/26 04:32:37;;;;;;;0.93;0.93;;;;;;;;;;5114439;28;20253;-85
2022/10/26 04:35:05;;;;;;;1.17;1.17;;;;;;;;;;5114228;28;20200;-85
2022/10/26 04:37:34;;;;;;;1.87;1.40;;;;;;;;;;5114258;28;20208;-85
2022/10/26 04:40:03;;;;;;;1.27;1.27;;;;;;;;;;5101788;28;20198;-85
2022/10/26 04:42:32;;;;;;;0.50;0.50;;;;;;;;;;5113313;28;20232;-85
2022/10/26 04:45:01;;;;;;;3.00;2.00;;;;;;;;;;5103681;28;20249;-85
2022/10/26 04:47:31;;;;;;;1.47;1.17;;;;;;;;;;5113844;28;20192;-85
2022/10/26 04:49:59;;;;;;;1.93;0.87;;;;;;;;;;5113948;28;20203;-85
2022/10/26 04:52:27;;;;;;;2.77;1.53;;;;;;;;;;5113667;28;20224;-85
2022/10/26 04:54:56;;;;;;;1.33;1.33;;;;;;;;;;5113739;28;20296;-86
2022/10/26 04:57:24;;;;;;;1.80;1.33;;;;;;;;;;5113879;28;20201;-85
2022/10/26 04:59:53;;;;;;;0.83;0.83;;;;;;;;;;5114102;28;20204;-87
2022/10/26 05:02:21;;;;;;;1.67;1.57;;;;;;;;;;5113716;28;20201;-87
2022/10/26 05:04:51;;;;;;;4.00;2.10;;;;;;;;;;5114923;28;20232;-87
2022/10/26 05:07:20;;;;;;;2.53;2.33;;;;;;;;;;5113443;28;20292;-88
2022/10/26 05:09:48;;;;;;;6.13;3.17;;;;;;;;;;5102648;28;20220;-87
2022/10/26 05:12:16;;;;;;;3.77;2.70;;;;;;;;;;5112501;28;20287;-88
2022/10/26 05:14:45;;;;;;;3.23;2.00;;;;;;;;;;5113460;28;20254;-87
2022/10/26 05:17:13;;;;;;;4.70;3.00;;;;;;;;;;5113430;28;20228;-88
2022/10/26 05:19:42;;;;;;;4.90;3.00;;;;;;;;;;5113257;28;20216;-86
2022/10/26 05:22:12;;;;;;;3.17;2.27;;;;;;;;;;5101357;28;20270;-85
2022/10/26 05:24:40;;;;;;;5.73;3.10;;;;;;;;;;5113167;28;20201;-85
2022/10/26 05:27:09;;;;;;;6.30;3.57;;;;;;;;;;5105021;28;20215;-85
2022/10/26 05:29:37;;;;;;;2.40;2.17;;;;;;;;;;5107787;28;20196;-86
2022/10/26 05:32:06;;;;;;;2.80;1.80;;;;;;;;;;5112848;28;20189;-85
2022/10/26 05:34:36;;;;;;;1.53;1.43;;;;;;;;;;5112827;28;20200;-85
2022/10/26 05:37:09;;;;;;;3.23;2.50;;;;;;;;;;5113039;28;20211;-85
2022/10/26 05:39:39;;;;;;;3.70;2.90;;;;;;;;;;5113003;28;20299;-85
2022/10/26 05:42:10;;;;;;;1.87;1.77;;;;;;;;;;5113194;28;20208;-84
2022/10/26 05:44:39;;;;;;;7.03;3.47;;;;;;;;;;5100874;28;20221;-85
2022/10/26 05:47:07;;;;;;;5.67;2.43;;;;;;;;;;5113064;28;20258;-85
2022/10/26 05:49:35;;;;;;;6.93;2.73;;;;;;;;;;5112947;28;20204;-84
2022/10/26 05:52:04;;;;;;;5.57;3.80;;;;;;;;;;5112712;28;20202;-84
2022/10/26 05:54:32;;;;;;;5.97;3.10;;;;;;;;;;5113558;28;20196;-84
2022/10/26 05:57:03;;;;;;;8.90;2.07;;;;;;;;;;5099366;28;20210;-84
2022/10/26 05:59:31;;;;;;;2.53;2.33;;;;;;;;;;5113674;28;20231;-82
2022/10/26 06:02:05;;;;;;;6.33;3.37;;;;;;;;;;5112505;28;20253;-84
2022/10/26 06:04:37;;;;;;;1.80;1.67;;;;;;;;;;5112041;28;20222;-84
2022/10/26 06:07:11;;;;;;;6.40;3.13;;;;;;;;;;5113558;28;20201;-84
2022/10/26 06:09:40;;;;;;;13.60;3.93;;;;;;;;;;5113530;28;20274;-85
2022/10/26 06:12:11;;;;;;;7.23;3.87;;;;;;;;;;5113254;28;20196;-84
2022/10/26 06:14:44;;;;;;;4.50;2.80;;;;;;;;;;5100509;28;20208;-84
2022/10/26 06:17:19;;;;;;;8.40;3.50;;;;;;;;;;5112256;28;20249;-85
2022/10/26 06:19:58;;;;;;;4.40;3.10;;;;;;;;;;5112310;28;20222;-85
2022/10/26 06:22:32;;;;;;;7.00;3.73;;;;;;;;;;5112308;28;20203;-84
2022/10/26 06:25:05;;;;;;;4.77;2.80;;;;;;;;;;5112049;28;20196;-84
2022/10/26 06:27:39;;;;;;;6.67;3.03;;;;;;;;;;5102066;28;20237;-84
2022/10/26 06:30:10;;;;;;;6.70;3.33;;;;;;;;;;5098419;28;20237;-84
2022/10/26 06:32:39;;;;;;;9.00;3.60;;;;;;;;;;5112632;28;20207;-85
2022/10/26 06:35:19;;;;;;;5.30;3.33;;;;;;;;;;5112916;28;20212;-85
2022/10/26 06:37:49;;;;;;;8.27;2.57;;;;;;;;;;5112146;28;20223;-85
2022/10/26 06:40:18;;;;;;;6.97;2.73;;;;;;;;;;5112419;28;20219;-84
2022/10/26 06:42:49;;;;;;;2.40;1.87;;;;;;;;;;5115438;28;20197;-84
2022/10/26 06:45:18;;;;;;;8.47;2.10;;;;;;;;;;5116226;28;20196;-84
2022/10/26 06:47:49;;;;;;;3.23;2.40;;;;;;;;;;5116368;28;20204;-84
2022/10/26 06:50:25;;;;;;;0.40;0.40;;;;;;;;;;5117329;28;20220;-84
2022/10/26 06:52:58;;;;;;;0.43;0.43;;;;;;;;;;5116053;28;20207;-82
2022/10/26 06:55:28;;;;;;;4.07;2.53;;;;;;;;;;5115039;28;20291;-82
2022/10/26 06:57:58;;;;;;;4.37;2.80;;;;;;;;;;5104009;28;20211;-82
2022/10/26 07:00:27;;;;;;;3.47;3.00;;;;;;;;;;5116098;28;20226;-82
2022/10/26 07:02:57;;;;;;;3.70;3.13;;;;;;;;;;5115614;28;20199;-82
2022/10/26 07:05:25;;;;;;;6.87;3.13;;;;;;;;;;5115907;28;20232;-84
2022/10/26 07:07:54;;;;;;;4.33;3.93;;;;;;;;;;5115773;28;20217;-84
2022/10/26 07:10:25;;;;;;;8.70;4.10;;;;;;;;;;5116597;28;20200;-84
2022/10/26 07:12:54;;;;;;;4.70;3.90;;;;;;;;;;5105983;28;20284;-84
2022/10/26 07:15:27;;;;;;;1.30;1.20;;;;;;;;;;5109386;28;20196;-84
2022/10/26 07:18:04;;;;;;;4.27;3.60;;;;;;;;;;5105072;28;20224;-84
2022/10/26 07:20:33;;;;;;;1.90;1.80;;;;;;;;;;5111401;27;20249;-85
2022/10/26 07:23:02;;;;;;;6.33;2.93;;;;;;;;;;5099506;27;20209;-83
2022/10/26 07:25:31;;;;;;;6.20;4.53;;;;;;;;;;5113608;27;20276;-84
2022/10/26 07:28:00;;;;;;;6.97;4.63;;;;;;;;;;5100508;27;20205;-83
2022/10/26 07:30:33;;;;;;;7.03;4.20;;;;;;;;;;5111757;27;20206;-84
2022/10/26 07:33:02;;;;;;;6.67;3.40;;;;;;;;;;5112707;27;20225;-85
2022/10/26 07:35:33;;;;;;;6.77;3.73;;;;;;;;;;5106313;27;20209;-86
2022/10/26 07:38:03;;;;;;;4.40;2.97;;;;;;;;;;5116734;27;20273;-86
2022/10/26 07:40:35;;;;;;;9.90;3.43;;;;;;;;;;5107906;27;20236;-86
2022/10/26 07:43:04;;;;;;;7.17;4.30;;;;;;;;;;5107741;27;20208;-86
2022/10/26 07:45:35;;;;;;;5.70;2.93;;;;;;;;;;5106696;27;20208;-86
2022/10/26 07:48:07;;;;;;;5.13;3.20;;;;;;;;;;5109179;27;20285;-85
2022/10/26 07:50:36;;;;;;;8.50;2.70;;;;;;;;;;5107430;27;20193;-85
2022/10/26 07:53:05;;;;;;;5.00;4.50;;;;;;;;;;5117415;27;20198;-86
2022/10/26 07:55:33;;;;;;;5.13;4.00;;;;;;;;;;5106913;27;20210;-85
2022/10/26 07:58:02;;;;;;;5.50;3.73;;;;;;;;;;5102872;27;20210;-84
2022/10/26 08:00:33;;;;;;;5.87;3.33;;;;;;;;;;5112726;28;20201;-85
2022/10/26 08:03:03;;;;;;;6.70;4.33;;;;;;;;;;5115307;27;20231;-84
2022/10/26 08:05:32;;;;;;;7.60;4.10;;;;;;;;;;5135535;27;20323;-83
2022/10/26 08:08:04;;;;;;;4.57;3.33;;;;;;;;;;5105032;27;20205;-84
2022/10/26 08:10:33;;;;;;;6.73;4.17;;;;;;;;;;5105195;27;20284;-85
2022/10/26 08:13:02;;;;;;;7.10;4.33;;;;;;;;;;5115334;27;20261;-86
2022/10/26 08:15:30;;;;;;;6.03;4.53;;;;;;;;;;5110024;27;20269;-83
2022/10/26 08:18:00;;;;;;;5.23;3.23;;;;;;;;;;5111321;27;20202;-85
2022/10/26 08:20:30;;;;;;;8.90;4.60;;;;;;;;;;5109436;27;20319;-83
2022/10/26 08:23:00;;;;;;;5.07;4.00;;;;;;;;;;5104608;27;20206;-84
2022/10/26 08:25:30;;;;;;;7.83;4.63;;;;;;;;;;5104413;27;20202;-82
2022/10/26 08:28:03;;;;;;;7.63;4.70;;;;;;;;;;5119956;27;20214;-82
2022/10/26 08:30:32;;;;;;;6.67;3.33;;;;;;;;;;5104475;28;20194;-84
2022/10/26 08:33:04;;;;;;;8.47;4.80;;;;;;;;;;5108948;27;20203;-83
2022/10/26 08:35:34;;;;;;;11.10;4.13;;;;;;;;;;5105196;27;20293;-83
2022/10/26 08:38:03;;;;;;;7.97;4.60;;;;;;;;;;5108243;27;20280;-83
2022/10/26 08:40:33;;;;;;;6.73;3.40;;;;;;;;;;5111086;27;20229;-83
2022/10/26 08:43:05;;;;;;;6.03;3.70;;;;;;;;;;5107210;27;20270;-84
2022/10/26 08:45:37;;;;;;;7.97;4.17;;;;;;;;;;5106131;27;20203;-83
2022/10/26 08:48:10;;;;;;;8.83;4.50;;;;;;;;;;5104696;27;20213;-83
2022/10/26 08:50:42;;;;;;;1.87;1.77;;;;;;;;;;5103650;27;20207;-83
2022/10/26 08:53:19;;;;;;;5.90;3.70;;;;;;;;;;5106689;27;20218;-83
2022/10/26 08:55:48;;;;;;;5.20;4.00;;;;;;;;;;5106913;27;20196;-82
2022/10/26 08:58:18;;;;;;;4.00;3.60;;;;;;;;;;5116625;27;20201;-82
2022/10/26 09:00:49;;;;;;;6.63;5.27;;;;;;;;;;5102975;27;20217;-82
2022/10/26 09:03:23;;;;;;;6.90;3.73;;;;;;;;;;5103170;27;20296;-83
2022/10/26 09:06:13;;;;;;;5.47;3.50;;;;;;;;;;5104438;27;20329;-83
2022/10/26 09:08:48;;;;;;;7.33;4.10;;;;;;;;;;5104700;27;20205;-83
2022/10/26 09:11:21;;;;;;;5.80;3.40;;;;;;;;;;5104021;27;20207;-82
2022/10/26 09:13:58;;;;;;;5.63;3.37;;;;;;;;;;5110175;27;20202;-82
2022/10/26 09:16:30;;;;;;;6.27;3.93;;;;;;;;;;5116819;27;20210;-81
2022/10/26 09:19:07;;;;;;;7.63;2.83;;;;;;;;;;5103981;27;20212;-81
2022/10/26 09:21:48;;;;;;;7.80;4.20;;;;;;;;;;5105420;27;20219;-83
2022/10/26 09:24:20;;;;;;;6.83;3.67;;;;;;;;;;5106992;27;20213;-83
2022/10/26 09:26:54;;;;;;;6.07;2.27;;;;;;;;;;5112537;27;20327;-83
2022/10/26 09:29:27;;;;;;;7.77;4.00;;;;;;;;;;5106994;27;20212;-82
2022/10/26 09:31:56;;;;;;;4.70;3.13;;;;;;;;;;5107526;27;20203;-85
2022/10/26 09:34:29;;;;;;;6.47;3.27;;;;;;;;;;5100175;27;20199;-84
2022/10/26 09:36:59;;;;;;;7.83;4.10;;;;;;;;;;5132599;27;20211;-83
2022/10/26 09:39:33;;;;;;;0.80;0.80;;;;;;;;;;5104964;27;20199;-82
2022/10/26 09:42:07;;;;;;;5.47;3.60;;;;;;;;;;5113215;27;20236;-83
2022/10/26 09:44:39;;;;;;;4.93;3.63;;;;;;;;;;5106984;27;20210;-83
2022/10/26 09:47:13;;;;;;;5.83;2.13;;;;;;;;;;5104459;27;20297;-86
2022/10/26 09:49:47;;;;;;;3.47;2.30;;;;;;;;;;5128154;27;20288;-86
2022/10/26 09:52:20;;;;;;;2.03;1.83;;;;;;;;;;5091132;27;20199;-86
2022/10/26 09:54:48;;;;;;;9.43;3.57;;;;;;;;;;5121730;27;20205;-86
2022/10/26 09:57:19;;;;;;;1.63;1.23;;;;;;;;;;5114175;27;20204;-85
2022/10/26 09:59:48;;;;;;;0.80;0.80;;;;;;;;;;5110196;27;20207;-87
2022/10/26 10:02:32;;;;;;;2.47;2.10;;;;;;;;;;5109206;27;20246;-83
2022/10/26 10:05:01;;;;;;;6.60;3.83;;;;;;;;;;5109374;28;20295;-82
2022/10/26 10:07:31;;;;;;;4.83;2.97;;;;;;;;;;5111210;27;20328;-82
2022/10/26 10:10:09;;;;;;;2.60;2.40;;;;;;;;;;5119408;27;20194;-82
2022/10/26 10:12:38;;;;;;;7.37;3.33;;;;;;;;;;5106719;28;20226;-83
2022/10/26 10:15:20;;;;;;;5.20;2.60;;;;;;;;;;5111053;28;20191;-83
2022/10/26 10:17:54;;;;;;;8.03;3.33;;;;;;;;;;5110068;27;20232;-84
2022/10/26 10:20:32;;;;;;;8.73;5.20;;;;;;;;;;5127616;27;20207;-83
2022/10/26 10:23:03;;;;;;;2.60;1.53;;;;;;;;;;5129461;27;20206;-83
2022/10/26 10:25:36;;;;;;;8.23;2.90;;;;;;;;;;5112019;28;20199;-83
2022/10/26 10:28:20;;;;;;;6.47;2.40;;;;;;;;;;5120995;28;20214;-83
2022/10/26 10:30:53;;;;;;;3.80;2.70;;;;;;;;;;5108362;28;20216;-82
2022/10/26 10:33:23;;;;;;;4.97;2.73;;;;;;;;;;5111456;28;20303;-83
2022/10/26 10:35:53;;;;;;;4.93;3.03;;;;;;;;;;5111325;28;20196;-83
2022/10/26 10:38:23;;;;;;;2.10;1.50;;;;;;;;;;5109639;28;20195;-82
2022/10/26 10:40:53;;;;;;;3.97;2.73;;;;;;;;;;5106649;28;20220;-83
2022/10/26 10:43:22;;;;;;;4.17;2.53;;;;;;;;;;5111220;28;20192;-83
2022/10/26 10:45:52;;;;;;;2.80;2.30;;;;;;;;;;5110743;28;20207;-84
2022/10/26 10:48:26;;;;;;;3.07;1.17;;;;;;;;;;5111846;28;20225;-85
2022/10/26 10:51:02;;;;;;;5.50;2.77;;;;;;;;;;5109161;28;20241;-85
2022/10/26 10:53:39;;;;;;;10.60;4.13;;;;;;;;;;5108939;28;20310;-92
2022/10/26 10:56:27;;;;;;;6.30;3.17;;;;;;;;;;5120167;28;20231;-86
2022/10/26 10:59:02;;;;;;;3.30;2.97;;;;;;;;;;5105539;28;20223;-86
2022/10/26 11:01:39;;;;;;;4.03;1.90;;;;;;;;;;5101719;28;20242;-86
2022/10/26 11:04:21;;;;;;;2.83;1.33;;;;;;;;;;5104339;28;20321;-86
2022/10/26 11:06:52;;;;;;;8.10;3.00;;;;;;;;;;5110730;28;20244;-86
2022/10/26 11:09:26;;;;;;;3.33;1.97;;;;;;;;;;5108785;28;20211;-86
2022/10/26 11:11:58;;;;;;;6.37;1.70;;;;;;;;;;5109052;28;20200;-85
2022/10/26 11:14:33;;;;;;;2.47;1.20;;;;;;;;;;5106741;28;20252;-85
2022/10/26 11:17:08;;;;;;;3.93;1.57;;;;;;;;;;5106690;28;20196;-84
2022/10/26 11:19:40;;;;;;;5.57;2.67;;;;;;;;;;5101538;28;20212;-85
2022/10/26 11:22:13;;;;;;;5.63;2.20;;;;;;;;;;5105959;28;20247;-84
2022/10/26 11:24:49;;;;;;;1.37;1.20;;;;;;;;;;5106085;28;20211;-86
2022/10/26 11:27:19;;;;;;;3.03;1.17;;;;;;;;;;5111884;27;20200;-85
2022/10/26 11:29:56;;;;;;;1.53;1.13;;;;;;;;;;5112895;27;20209;-85
2022/10/26 11:32:31;;;;;;;3.43;1.37;;;;;;;;;;5108415;27;20200;-85
2022/10/26 11:35:12;;;;;;;5.50;1.33;;;;;;;;;;5106606;27;20220;-85
2022/10/26 11:37:51;;;;;;;2.27;1.00;;;;;;;;;;5116617;27;20218;-85
2022/10/26 11:40:29;;;;;;;4.20;2.10;;;;;;;;;;5126905;27;20210;-86
2022/10/26 11:43:02;;;;;;;1.90;1.70;;;;;;;;;;5113375;27;20315;-85
2022/10/26 11:45:33;;;;;;;5.53;1.40;;;;;;;;;;5110128;27;20214;-85
2022/10/26 11:48:04;;;;;;;2.83;1.73;;;;;;;;;;5105458;27;20256;-85
2022/10/26 11:50:36;;;;;;;0.70;0.70;;;;;;;;;;5114987;27;20325;-85
2022/10/26 11:53:10;;;;;;;3.77;2.10;;;;;;;;;;5114625;27;20230;-85
2022/10/26 11:55:42;;;;;;;8.27;2.17;;;;;;;;;;5114575;27;20210;-86
2022/10/26 11:58:11;;;;;;;1.80;1.60;;;;;;;;;;5111130;27;20207;-85
2022/10/26 12:00:46;;;;;;;5.73;1.90;;;;;;;;;;5107464;27;20229;-86
2022/10/26 12:03:18;;;;;;;1.57;1.23;;;;;;;;;;5121286;27;20233;-86
2022/10/26 12:05:48;;;;;;;4.30;1.90;;;;;;;;;;5113476;27;20330;-86
2022/10/26 12:08:19;;;;;;;5.30;3.00;;;;;;;;;;5107580;27;20292;-85
2022/10/26 12:10:53;;;;;;;5.73;2.67;;;;;;;;;;5111991;27;20208;-85
2022/10/26 12:13:26;;;;;;;4.70;2.90;;;;;;;;;;5122814;27;20188;-85
2022/10/26 12:15:59;;;;;;;6.03;1.77;;;;;;;;;;5117758;27;20208;-84
2022/10/26 12:18:35;;;;;;;2.53;1.03;;;;;;;;;;5113795;28;20200;-85
2022/10/26 12:21:24;;;;;;;8.07;2.30;;;;;;;;;;5113647;28;20206;-84
2022/10/26 12:23:54;;;;;;;4.17;1.67;;;;;;;;;;5106683;28;20200;-84
2022/10/26 12:26:47;;;;;;;9.43;3.37;;;;;;;;;;5110784;28;20201;-84
2022/10/26 12:29:27;;;;;;;4.70;2.33;;;;;;;;;;5113954;28;20202;-86
2022/10/26 12:31:56;;;;;;;7.70;2.63;;;;;;;;;;5108117;28;20249;-84
2022/10/26 12:34:25;;;;;;;5.87;2.43;;;;;;;;;;5113768;28;20246;-84
2022/10/26 12:37:20;;;;;;;3.67;2.20;;;;;;;;;;5111727;28;20197;-85
2022/10/26 12:39:49;;;;;;;1.83;0.83;;;;;;;;;;5054622;27;20273;-85
2022/10/26 12:42:29;;;;;;;5.43;2.37;;;;;;;;;;5109191;27;20218;-85
2022/10/26 12:45:16;;;;;;;9.83;2.60;;;;;;;;;;5109996;27;20287;-84
2022/10/26 12:48:05;;;;;;;4.20;2.37;;;;;;;;;;5107545;28;20208;-85
2022/10/26 12:50:49;;;;;;;2.40;1.47;;;;;;;;;;5102176;27;20199;-85
2022/10/26 12:53:20;;;;;;;4.73;1.73;;;;;;;;;;5106613;27;20255;-85
2022/10/26 12:55:55;;;;;;;6.67;2.00;;;;;;;;;;5112373;27;20197;-85
2022/10/26 12:58:50;;;;;;;6.40;2.70;;;;;;;;;;5110662;27;20223;-86
2022/10/26 13:01:40;;;;;;;3.57;1.60;;;;;;;;;;5109357;27;20203;-86
2022/10/26 13:04:15;;;;;;;1.63;1.33;;;;;;;;;;5102859;27;20221;-86
2022/10/26 13:07:00;;;;;;;5.17;2.43;;;;;;;;;;5104120;27;20232;-86
2022/10/26 13:09:31;;;;;;;6.03;2.27;;;;;;;;;;5110340;27;20199;-85
2022/10/26 13:12:02;;;;;;;5.83;1.97;;;;;;;;;;5108554;27;20197;-85
2022/10/26 13:14:36;;;;;;;9.80;3.70;;;;;;;;;;5105332;27;20218;-84
2022/10/26 13:17:25;;;;;;;2.27;0.97;;;;;;;;;;5109469;27;20249;-85
2022/10/26 13:20:00;;;;;;;2.93;1.67;;;;;;;;;;5112308;27;20208;-84
2022/10/26 13:22:29;;;;;;;6.70;2.10;;;;;;;;;;5111889;27;20286;-84
2022/10/26 13:25:01;;;;;;;4.33;1.83;;;;;;;;;;5106154;27;20206;-85
2022/10/26 13:27:44;;;;;;;2.50;1.67;;;;;;;;;;5112297;27;20197;-84
2022/10/26 13:30:23;;;;;;;2.93;1.70;;;;;;;;;;5103505;27;20203;-85
2022/10/26 13:32:56;;;;;;;3.07;1.60;;;;;;;;;;5109098;27;20199;-85
2022/10/26 13:35:25;;;;;;;7.97;2.10;;;;;;;;;;5120437;27;20203;-86
2022/10/26 13:37:55;;;;;;;4.93;1.87;;;;;;;;;;5106160;27;20200;-86
2022/10/26 13:40:25;;;;;;;1.83;1.03;;;;;;;;;;5109709;27;20230;-86
2022/10/26 13:42:55;;;;;;;1.73;1.07;;;;;;;;;;5112496;27;20251;-86
2022/10/26 13:45:28;;;;;;;4.43;1.70;;;;;;;;;;5109667;27;20492;-86
2022/10/26 13:47:59;;;;;;;6.90;1.20;;;;;;;;;;5113883;27;20196;-86
2022/10/26 13:50:31;;;;;;;5.90;2.33;;;;;;;;;;5111718;27;20204;-86
2022/10/26 13:53:10;;;;;;;6.83;2.07;;;;;;;;;;5108847;27;20194;-86
2022/10/26 13:55:48;;;;;;;5.13;2.23;;;;;;;;;;5111513;27;20209;-87
2022/10/26 13:58:29;;;;;;;4.80;1.57;;;;;;;;;;5107931;27;20197;-86
2022/10/26 14:01:02;;;;;;;2.83;1.50;;;;;;;;;;5111882;27;20203;-85
2022/10/26 14:03:35;;;;;;;2.23;1.23;;;;;;;;;;5115887;27;20224;-86
2022/10/26 14:06:09;;;;;;;9.23;1.20;;;;;;;;;;5107323;28;20224;-86
2022/10/26 14:08:41;;;;;;;2.97;1.70;;;;;;;;;;5105408;27;20233;-86
2022/10/26 14:11:12;;;;;;;3.87;1.40;;;;;;;;;;5112483;27;20295;-86
2022/10/26 14:13:40;;;;;;;4.50;1.70;;;;;;;;;;5114234;27;20199;-86
2022/10/26 14:16:10;;;;;;;2.90;1.73;;;;;;;;;;5112179;28;20198;-88
2022/10/26 14:18:51;;;;;;;4.93;1.20;;;;;;;;;;5106461;28;20206;-86
2022/10/26 14:21:22;;;;;;;3.93;2.37;;;;;;;;;;5107445;28;20194;-86
2022/10/26 14:23:55;;;;;;;2.43;1.07;;;;;;;;;;5111498;28;20304;-87
2022/10/26 14:26:25;;;;;;;2.70;1.07;;;;;;;;;;5108513;28;20197;-87
2022/10/26 14:28:55;;;;;;;3.57;0.97;;;;;;;;;;5108002;28;20201;-87
2022/10/26 14:31:30;;;;;;;5.53;3.00;;;;;;;;;;5108348;28;20201;-87
2022/10/26 14:34:01;;;;;;;2.87;1.60;;;;;;;;;;5103492;28;20216;-86
2022/10/26 14:36:33;;;;;;;2.90;1.43;;;;;;;;;;5113963;28;20198;-87
2022/10/26 14:39:03;;;;;;;2.60;1.10;;;;;;;;;;5109713;28;20259;-86
2022/10/26 14:41:35;;;;;;;3.63;0.90;;;;;;;;;;5111701;28;20339;-87
2022/10/26 14:44:07;;;;;;;5.47;1.87;;;;;;;;;;5112956;28;20208;-87
2022/10/26 14:46:36;;;;;;;5.87;1.93;;;;;;;;;;5115048;28;20206;-87
2022/10/26 14:49:06;;;;;;;2.70;1.43;;;;;;;;;;5107890;28;20212;-87
2022/10/26 14:51:35;;;;;;;4.43;1.70;;;;;;;;;;5111944;28;20276;-86
2022/10/26 14:54:04;;;;;;;6.97;1.90;;;;;;;;;;5099731;28;20207;-86
2022/10/26 14:56:40;;;;;;;4.63;1.70;;;;;;;;;;5110989;28;20192;-87
2022/10/26 14:59:12;;;;;;;2.37;1.10;;;;;;;;;;5106113;28;20196;-87
2022/10/26 15:01:51;;;;;;;4.73;2.27;;;;;;;;;;5107363;28;20220;-85
2022/10/26 15:04:38;;;;;;;3.97;1.60;;;;;;;;;;5112817;27;20224;-87
2022/10/26 15:07:15;;;;;;;3.20;1.30;;;;;;;;;;5108888;27;20236;-86
2022/10/26 15:09:54;;;;;;;3.17;1.10;;;;;;;;;;5108448;27;20261;-87
2022/10/26 15:12:32;;;;;;;3.60;1.70;;;;;;;;;;5110698;27;20207;-86